Time;durP1;ratioP1;P1;durP2;ratioP2;P2;SDS_P1;SDS_P2;PMS_P1;PMS_P2;Temp;Humidity;BMP_temperature;BMP_pressure;BME280_temperature;BME280_humidity;BME280_pressure;Samples;Min_cycle;Max_cycle;Signal;HPM_P1;HPM_P2
2023/11/22 00:02:05;;;;;;;11.40;10.10;;;6.40;99.90;;;;;;4830002;29;20206;-68
2023/11/22 00:04:30;;;;;;;12.90;10.90;;;6.40;99.90;;;;;;4846129;29;20491;-65
2023/11/22 00:06:56;;;;;;;15.27;10.77;;;6.40;99.90;;;;;;4844725;29;20256;-66
2023/11/22 00:09:22;;;;;;;11.57;9.10;;;6.40;99.90;;;;;;4842292;29;20240;-66
2023/11/22 00:11:49;;;;;;;14.27;10.20;;;6.40;99.90;;;;;;4846903;29;20209;-65
2023/11/22 00:14:15;;;;;;;17.13;11.23;;;6.30;99.90;;;;;;4829334;29;20883;-65
2023/11/22 00:16:40;;;;;;;13.10;9.10;;;6.30;99.90;;;;;;4829070;29;20446;-65
2023/11/22 00:19:06;;;;;;;13.13;10.83;;;6.30;99.90;;;;;;4833796;29;20185;-64
2023/11/22 00:21:32;;;;;;;11.30;9.47;;;6.20;99.90;;;;;;4839657;29;20257;-65
2023/11/22 00:23:58;;;;;;;13.13;10.63;;;6.20;99.90;;;;;;4841174;29;20192;-66
2023/11/22 00:26:23;;;;;;;12.73;10.20;;;6.20;99.90;;;;;;4837983;29;20450;-66
2023/11/22 00:28:55;;;;;;;29.17;11.60;;;6.20;99.90;;;;;;4827641;29;20270;-64
2023/11/22 00:31:20;;;;;;;12.50;9.77;;;6.10;99.90;;;;;;4829980;29;20423;-65
2023/11/22 00:33:46;;;;;;;14.37;10.50;;;6.10;99.90;;;;;;4832431;29;20498;-65
2023/11/22 00:36:12;;;;;;;13.33;10.17;;;6.00;99.90;;;;;;4834526;29;20661;-64
2023/11/22 00:38:39;;;;;;;10.47;8.87;;;6.00;99.90;;;;;;4848671;29;21296;-64
2023/11/22 00:41:07;;;;;;;15.33;9.53;;;6.00;99.90;;;;;;4845366;29;20602;-65
2023/11/22 00:43:33;;;;;;;12.00;9.60;;;6.00;99.90;;;;;;4829004;29;20473;-65
2023/11/22 00:45:58;;;;;;;14.00;11.20;;;6.00;99.90;;;;;;4827654;29;20454;-65
2023/11/22 00:48:24;;;;;;;13.60;10.27;;;6.00;99.90;;;;;;4842808;29;20265;-65
2023/11/22 00:50:50;;;;;;;15.40;10.70;;;6.00;99.90;;;;;;4842341;29;20169;-64
2023/11/22 00:53:18;;;;;;;14.97;10.33;;;6.00;99.90;;;;;;4848132;29;20196;-64
2023/11/22 00:55:43;;;;;;;15.50;10.90;;;6.00;99.90;;;;;;4849705;29;20486;-63
2023/11/22 00:58:09;;;;;;;14.87;10.90;;;6.00;99.90;;;;;;4826794;29;20480;-65
2023/11/22 01:00:35;;;;;;;14.77;12.13;;;6.00;99.90;;;;;;4843885;29;20611;-65
2023/11/22 01:03:00;;;;;;;14.37;11.73;;;6.10;99.90;;;;;;4852000;29;20199;-64
2023/11/22 01:05:27;;;;;;;14.20;10.37;;;6.00;99.90;;;;;;4843465;29;20232;-66
2023/11/22 01:07:52;;;;;;;14.50;11.20;;;6.00;99.90;;;;;;4830705;29;20637;-63
2023/11/22 01:10:18;;;;;;;14.13;10.67;;;6.00;99.90;;;;;;4828217;29;20439;-65
2023/11/22 01:12:44;;;;;;;15.40;10.87;;;6.00;99.90;;;;;;4827756;29;20205;-64
2023/11/22 01:15:09;;;;;;;15.03;11.10;;;6.00;99.90;;;;;;4827221;29;20453;-64
2023/11/22 01:17:36;;;;;;;16.80;10.90;;;6.00;99.90;;;;;;4828210;29;20500;-64
2023/11/22 01:20:03;;;;;;;14.50;10.07;;;6.00;99.90;;;;;;4828030;29;20500;-64
2023/11/22 01:22:29;;;;;;;15.00;11.33;;;6.00;99.90;;;;;;4833433;29;20748;-65
2023/11/22 01:24:54;;;;;;;14.40;11.70;;;6.00;99.90;;;;;;4831514;29;20469;-64
2023/11/22 01:27:20;;;;;;;16.40;12.10;;;6.00;99.90;;;;;;4828086;29;20483;-63
2023/11/22 01:29:45;;;;;;;13.60;10.10;;;6.00;99.90;;;;;;4831732;29;20197;-65
2023/11/22 01:32:11;;;;;;;14.00;10.43;;;6.00;99.90;;;;;;4841344;29;20198;-65
2023/11/22 01:34:36;;;;;;;13.83;9.83;;;6.00;99.90;;;;;;4830955;29;20209;-64
2023/11/22 01:37:03;;;;;;;15.37;10.90;;;6.00;99.90;;;;;;4831534;29;20286;-63
2023/11/22 01:39:29;;;;;;;16.70;11.80;;;6.00;99.90;;;;;;4829945;29;20246;-64
2023/11/22 01:41:56;;;;;;;15.83;11.20;;;6.10;99.90;;;;;;4830605;29;20434;-65
2023/11/22 01:44:21;;;;;;;17.57;10.27;;;6.00;99.90;;;;;;4830452;29;20534;-64
2023/11/22 01:46:47;;;;;;;14.33;10.80;;;6.00;99.90;;;;;;4831275;29;20803;-65
2023/11/22 01:49:13;;;;;;;14.93;10.33;;;6.00;99.90;;;;;;4829781;29;20544;-64
2023/11/22 01:51:40;;;;;;;15.67;11.30;;;6.00;99.90;;;;;;4830961;29;20766;-65
2023/11/22 01:54:08;;;;;;;14.83;11.07;;;6.00;99.90;;;;;;4832354;29;20601;-64
2023/11/22 01:56:39;;;;;;;20.57;13.40;;;6.00;99.90;;;;;;4849600;29;20490;-64
2023/11/22 01:59:05;;;;;;;17.27;11.30;;;5.90;99.90;;;;;;4833049;29;20468;-64
2023/11/22 02:01:31;;;;;;;18.03;11.77;;;5.90;99.90;;;;;;4847068;29;20427;-64
2023/11/22 02:03:57;;;;;;;16.67;11.73;;;5.90;99.90;;;;;;4844230;29;20223;-64
2023/11/22 02:06:24;;;;;;;14.03;10.73;;;5.90;99.90;;;;;;4842899;29;20478;-65
2023/11/22 02:08:50;;;;;;;16.00;11.53;;;5.80;99.90;;;;;;4845026;29;20458;-64
2023/11/22 02:11:24;;;;;;;13.80;10.47;;;5.80;99.90;;;;;;4830396;29;20427;-64
2023/11/22 02:13:50;;;;;;;15.50;10.10;;;5.80;99.90;;;;;;4833755;29;20218;-64
2023/11/22 02:16:17;;;;;;;11.87;9.93;;;5.80;99.90;;;;;;4838620;29;20473;-64
2023/11/22 02:18:47;;;;;;;15.20;11.73;;;5.80;99.90;;;;;;4845200;29;20698;-64
2023/11/22 02:21:14;;;;;;;16.50;11.90;;;5.80;99.90;;;;;;4828905;29;20431;-63
2023/11/22 02:23:42;;;;;;;18.53;13.23;;;5.90;99.90;;;;;;4838553;29;20432;-63
2023/11/22 02:26:08;;;;;;;17.40;12.30;;;5.90;99.90;;;;;;4821733;29;20537;-64
2023/11/22 02:28:33;;;;;;;15.60;11.57;;;5.90;99.90;;;;;;4829952;29;20520;-64
2023/11/22 02:30:59;;;;;;;12.97;10.80;;;5.90;99.90;;;;;;4830129;29;20435;-64
2023/11/22 02:33:25;;;;;;;15.30;11.30;;;5.90;99.90;;;;;;4830543;29;20212;-64
2023/11/22 02:35:50;;;;;;;13.50;10.47;;;5.90;99.90;;;;;;4844533;29;20638;-65
2023/11/22 02:38:18;;;;;;;13.50;10.50;;;5.90;99.90;;;;;;4848641;29;20612;-64
2023/11/22 02:40:44;;;;;;;14.73;9.87;;;5.90;99.90;;;;;;4835703;29;20602;-64
2023/11/22 02:43:11;;;;;;;11.13;10.00;;;5.90;99.90;;;;;;4827885;29;20435;-64
2023/11/22 02:45:37;;;;;;;12.40;10.00;;;5.90;99.90;;;;;;4830070;29;20565;-64
2023/11/22 02:48:03;;;;;;;13.30;10.50;;;5.90;99.90;;;;;;4830148;29;20471;-64
2023/11/22 02:50:31;;;;;;;17.30;12.23;;;5.80;99.90;;;;;;4830003;29;20254;-64
2023/11/22 02:52:58;;;;;;;14.53;10.50;;;5.80;99.90;;;;;;4830424;29;20447;-64
2023/11/22 02:55:25;;;;;;;12.53;10.37;;;5.90;99.90;;;;;;4845286;29;20534;-64
2023/11/22 02:57:51;;;;;;;12.73;10.20;;;5.80;99.90;;;;;;4839443;29;20751;-64
2023/11/22 03:00:18;;;;;;;12.97;10.63;;;5.80;99.90;;;;;;4829056;29;20202;-64
2023/11/22 03:02:46;;;;;;;14.83;10.20;;;5.70;99.90;;;;;;4844441;29;20189;-65
2023/11/22 03:05:13;;;;;;;12.40;10.40;;;5.70;99.90;;;;;;4833245;29;20442;-64
2023/11/22 03:07:40;;;;;;;13.53;10.20;;;5.70;99.90;;;;;;4844261;29;20510;-64
2023/11/22 03:10:07;;;;;;;14.00;10.27;;;5.70;99.90;;;;;;4843897;29;20438;-65
2023/11/22 03:12:33;;;;;;;13.90;11.37;;;5.70;99.90;;;;;;4842170;29;20848;-65
2023/11/22 03:15:01;;;;;;;15.47;11.27;;;5.80;99.90;;;;;;4825260;29;20541;-64
2023/11/22 03:17:31;;;;;;;14.40;10.50;;;5.80;99.90;;;;;;4823538;29;20576;-63
2023/11/22 03:19:57;;;;;;;13.60;11.20;;;5.80;99.90;;;;;;4829894;29;20439;-64
2023/11/22 03:22:24;;;;;;;14.97;11.50;;;5.70;99.90;;;;;;4836506;29;20464;-64
2023/11/22 03:24:49;;;;;;;11.60;9.63;;;5.70;99.90;;;;;;4847415;29;20458;-64
2023/11/22 03:27:15;;;;;;;13.27;10.53;;;5.60;99.90;;;;;;4842615;29;20718;-63
2023/11/22 03:29:41;;;;;;;13.80;11.13;;;5.60;99.90;;;;;;4828820;29;21258;-64
2023/11/22 03:32:06;;;;;;;15.77;11.17;;;5.60;99.90;;;;;;4821791;29;20225;-65
2023/11/22 03:34:32;;;;;;;16.40;10.60;;;5.60;99.90;;;;;;4830039;29;20217;-64
2023/11/22 03:36:58;;;;;;;14.87;10.73;;;5.60;99.90;;;;;;4829305;29;20256;-65
2023/11/22 03:39:24;;;;;;;16.03;10.77;;;5.60;99.90;;;;;;4829515;29;20892;-64
2023/11/22 03:41:50;;;;;;;14.47;11.20;;;5.60;99.90;;;;;;4838440;29;20605;-63
2023/11/22 03:44:16;;;;;;;13.23;9.47;;;5.60;99.90;;;;;;4829164;29;20556;-63
2023/11/22 03:46:42;;;;;;;16.60;11.70;;;5.50;99.90;;;;;;4829633;29;20225;-64
2023/11/22 03:49:08;;;;;;;13.07;10.93;;;5.40;99.90;;;;;;4827806;29;20435;-64
2023/11/22 03:51:34;;;;;;;13.83;11.37;;;5.40;99.90;;;;;;4829068;29;20194;-64
2023/11/22 03:54:00;;;;;;;13.57;11.10;;;5.20;99.90;;;;;;4828779;29;20186;-64
2023/11/22 03:56:26;;;;;;;13.40;10.00;;;5.10;99.90;;;;;;4829373;29;20517;-64
2023/11/22 03:58:52;;;;;;;14.80;10.80;;;5.00;99.90;;;;;;4828550;29;20794;-64
2023/11/22 04:01:18;;;;;;;14.40;11.13;;;4.90;99.90;;;;;;4829240;29;20478;-64
2023/11/22 04:03:44;;;;;;;14.80;9.70;;;4.80;99.90;;;;;;4832863;29;20622;-64
2023/11/22 04:06:10;;;;;;;14.83;11.40;;;4.70;99.90;;;;;;4825655;29;20446;-63
2023/11/22 04:08:35;;;;;;;17.63;12.43;;;4.60;99.90;;;;;;4844357;29;20535;-64
2023/11/22 04:11:01;;;;;;;17.07;12.67;;;4.50;99.90;;;;;;4829551;29;20275;-63
2023/11/22 04:13:27;;;;;;;16.87;11.87;;;4.40;99.90;;;;;;4829605;29;20243;-65
2023/11/22 04:15:53;;;;;;;14.87;12.23;;;4.40;99.90;;;;;;4834976;29;20482;-65
2023/11/22 04:18:18;;;;;;;14.10;10.80;;;4.40;99.90;;;;;;4847324;29;20205;-65
2023/11/22 04:20:44;;;;;;;19.53;15.20;;;4.30;99.90;;;;;;4832487;29;20197;-64
2023/11/22 04:23:10;;;;;;;15.77;11.90;;;4.20;99.90;;;;;;4833039;29;20209;-64
2023/11/22 04:25:37;;;;;;;19.40;13.70;;;4.20;99.90;;;;;;4843602;29;20280;-63
2023/11/22 04:28:03;;;;;;;19.43;13.47;;;4.10;99.90;;;;;;4841546;29;20938;-65
2023/11/22 04:30:29;;;;;;;15.90;12.30;;;4.10;99.90;;;;;;4836707;29;20407;-65
2023/11/22 04:32:54;;;;;;;18.90;13.17;;;4.10;99.90;;;;;;4832844;29;20216;-64
2023/11/22 04:35:20;;;;;;;16.07;12.00;;;4.00;99.90;;;;;;4831552;29;20233;-64
2023/11/22 04:37:46;;;;;;;18.37;12.07;;;4.00;99.90;;;;;;4840061;29;20193;-64
2023/11/22 04:40:14;;;;;;;17.50;12.50;;;4.00;99.90;;;;;;4827991;29;20260;-65
2023/11/22 04:42:39;;;;;;;19.67;13.43;;;3.90;99.90;;;;;;4821326;29;20444;-64
2023/11/22 04:45:06;;;;;;;20.90;13.17;;;3.90;99.90;;;;;;4829097;29;20519;-65
2023/11/22 04:47:32;;;;;;;19.53;12.90;;;3.90;99.90;;;;;;4843203;29;20276;-65
2023/11/22 04:49:57;;;;;;;18.83;13.63;;;3.90;99.90;;;;;;4842821;29;20768;-65
2023/11/22 04:52:23;;;;;;;23.50;14.30;;;3.90;99.90;;;;;;4828622;29;20194;-64
2023/11/22 04:54:48;;;;;;;22.03;12.97;;;3.80;99.90;;;;;;4828840;29;20236;-65
2023/11/22 04:57:14;;;;;;;19.50;12.97;;;3.80;99.90;;;;;;4833515;29;20197;-65
2023/11/22 04:59:40;;;;;;;18.43;13.70;;;3.80;99.90;;;;;;4827976;29;20202;-64
2023/11/22 05:02:07;;;;;;;22.07;13.60;;;3.70;99.90;;;;;;4836114;29;20193;-65
2023/11/22 05:04:32;;;;;;;18.77;12.77;;;3.70;99.90;;;;;;4841816;29;20430;-65
2023/11/22 05:06:58;;;;;;;18.50;14.07;;;3.60;99.90;;;;;;4832716;29;20890;-64
2023/11/22 05:09:24;;;;;;;20.80;14.57;;;3.60;99.90;;;;;;4833240;29;20202;-69
2023/11/22 05:11:49;;;;;;;20.10;15.23;;;3.60;99.90;;;;;;4831142;29;20194;-67
2023/11/22 05:14:15;;;;;;;18.13;12.40;;;3.50;99.90;;;;;;4831389;29;20617;-64
2023/11/22 05:16:40;;;;;;;21.97;13.73;;;3.50;99.90;;;;;;4832411;29;20202;-64
2023/11/22 05:19:06;;;;;;;21.40;13.60;;;3.50;99.90;;;;;;4832282;29;20209;-65
2023/11/22 05:21:32;;;;;;;19.30;13.30;;;3.50;99.90;;;;;;4833015;29;20339;-64
2023/11/22 05:23:58;;;;;;;18.27;14.03;;;3.50;99.90;;;;;;4841608;29;20704;-65
2023/11/22 05:26:24;;;;;;;16.57;11.73;;;3.50;99.90;;;;;;4832912;29;20225;-64
2023/11/22 05:28:50;;;;;;;18.30;12.30;;;3.50;99.90;;;;;;4833877;29;20431;-65
2023/11/22 05:31:16;;;;;;;15.40;11.57;;;3.40;99.90;;;;;;4833497;29;20430;-64
2023/11/22 05:33:42;;;;;;;19.80;14.47;;;3.40;99.90;;;;;;4832658;29;20296;-66
2023/11/22 05:36:08;;;;;;;24.13;14.93;;;3.40;99.90;;;;;;4844022;29;20240;-65
2023/11/22 05:38:34;;;;;;;19.77;13.63;;;3.40;99.90;;;;;;4839266;29;20758;-66
2023/11/22 05:41:00;;;;;;;17.83;13.53;;;3.50;99.90;;;;;;4833897;29;20431;-65
2023/11/22 05:43:26;;;;;;;20.93;14.40;;;3.50;99.90;;;;;;4839985;29;20220;-65
2023/11/22 05:45:55;;;;;;;17.57;13.50;;;3.60;99.90;;;;;;4838875;29;20517;-65
2023/11/22 05:48:21;;;;;;;19.60;12.83;;;3.60;99.90;;;;;;4848181;29;20469;-68
2023/11/22 05:50:47;;;;;;;17.07;13.00;;;3.70;99.90;;;;;;4831085;29;20779;-65
2023/11/22 05:53:19;;;;;;;17.27;12.03;;;3.70;99.90;;;;;;4832059;29;20186;-65
2023/11/22 05:55:48;;;;;;;13.90;10.53;;;3.70;99.90;;;;;;4831527;29;20959;-65
2023/11/22 05:58:17;;;;;;;14.07;10.10;;;3.90;99.90;;;;;;4831501;29;20435;-65
2023/11/22 06:00:46;;;;;;;17.30;11.37;;;3.90;99.90;;;;;;4833050;29;20856;-64
2023/11/22 06:03:13;;;;;;;13.33;10.53;;;3.80;99.90;;;;;;4849151;29;20422;-66
2023/11/22 06:05:39;;;;;;;12.80;10.10;;;3.80;99.90;;;;;;4830937;29;20540;-66
2023/11/22 06:08:05;;;;;;;16.30;10.30;;;3.80;99.90;;;;;;4842013;29;20414;-65
2023/11/22 06:10:31;;;;;;;12.37;9.57;;;3.70;99.90;;;;;;4850030;29;20441;-67
2023/11/22 06:12:56;;;;;;;14.40;10.10;;;3.70;99.90;;;;;;4842812;29;20201;-65
2023/11/22 06:15:23;;;;;;;11.80;9.13;;;3.60;99.90;;;;;;4835275;29;20638;-66
2023/11/22 06:17:49;;;;;;;11.80;8.63;;;3.60;99.90;;;;;;4853346;29;20217;-65
2023/11/22 06:20:15;;;;;;;11.53;9.00;;;3.50;99.90;;;;;;4843188;29;20487;-67
2023/11/22 06:22:42;;;;;;;12.10;9.23;;;3.50;99.90;;;;;;4842352;29;20776;-66
2023/11/22 06:25:08;;;;;;;10.10;8.60;;;3.50;99.90;;;;;;4839845;29;20456;-67
2023/11/22 06:27:34;;;;;;;11.57;8.70;;;3.40;99.90;;;;;;4832161;29;20484;-65
2023/11/22 06:29:59;;;;;;;11.33;9.37;;;3.40;99.90;;;;;;4832917;29;20781;-68
2023/11/22 06:32:25;;;;;;;12.00;9.20;;;3.30;99.90;;;;;;4831230;29;20230;-65
2023/11/22 06:34:51;;;;;;;12.93;9.57;;;3.20;99.90;;;;;;4830588;29;20206;-68
2023/11/22 06:37:17;;;;;;;10.57;7.90;;;3.20;99.90;;;;;;4830875;29;20490;-65
2023/11/22 06:39:42;;;;;;;11.90;8.53;;;3.10;99.90;;;;;;4823032;29;20419;-69
2023/11/22 06:42:08;;;;;;;10.37;8.30;;;3.10;99.90;;;;;;4835534;29;20189;-68
2023/11/22 06:44:34;;;;;;;11.60;6.17;;;3.00;99.90;;;;;;4832107;29;20857;-68
2023/11/22 06:47:00;;;;;;;9.00;7.30;;;3.00;99.90;;;;;;4836125;29;20449;-67
2023/11/22 06:49:25;;;;;;;10.00;8.10;;;3.00;99.90;;;;;;4845539;29;20422;-66
2023/11/22 06:51:51;;;;;;;8.63;7.03;;;2.90;99.90;;;;;;4849618;29;20197;-66
2023/11/22 06:54:20;;;;;;;9.83;6.70;;;2.90;99.90;;;;;;4837265;29;20217;-67
2023/11/22 06:56:45;;;;;;;8.30;6.97;;;2.90;99.90;;;;;;4829723;29;20439;-66
2023/11/22 06:59:11;;;;;;;11.93;7.40;;;3.00;99.90;;;;;;4831261;29;20709;-67
2023/11/22 07:01:37;;;;;;;8.60;6.50;;;3.00;99.90;;;;;;4842537;29;20253;-69
2023/11/22 07:04:04;;;;;;;7.20;6.03;;;3.10;99.90;;;;;;4847474;29;20189;-67
2023/11/22 07:06:30;;;;;;;8.33;6.10;;;3.10;99.90;;;;;;4830615;29;20316;-69
2023/11/22 07:08:57;;;;;;;7.37;5.90;;;3.10;99.90;;;;;;4841661;29;20680;-68
2023/11/22 07:11:23;;;;;;;8.50;6.00;;;3.10;99.90;;;;;;4848186;29;20453;-66
2023/11/22 07:13:49;;;;;;;8.13;5.60;;;3.10;99.90;;;;;;4834837;29;20440;-68
2023/11/22 07:16:15;;;;;;;6.57;5.20;;;3.10;99.90;;;;;;4838924;29;20539;-66
2023/11/22 07:18:40;;;;;;;7.30;5.03;;;3.10;99.90;;;;;;4846789;29;20548;-67
2023/11/22 07:21:06;;;;;;;6.83;5.47;;;3.10;99.90;;;;;;4830964;29;20193;-69
2023/11/22 07:23:32;;;;;;;7.50;5.73;;;3.10;99.90;;;;;;4830455;29;20566;-69
2023/11/22 07:25:57;;;;;;;7.47;5.83;;;3.10;99.90;;;;;;4840195;29;20233;-66
2023/11/22 07:28:24;;;;;;;10.80;7.00;;;3.10;99.90;;;;;;4831743;29;20443;-67
2023/11/22 07:30:50;;;;;;;11.17;6.50;;;3.10;99.90;;;;;;4834499;29;20213;-68
2023/11/22 07:33:15;;;;;;;9.23;7.30;;;3.10;99.90;;;;;;4835316;29;20514;-67
2023/11/22 07:35:41;;;;;;;10.77;7.23;;;3.10;99.90;;;;;;4829667;29;20588;-68
2023/11/22 07:38:11;;;;;;;10.93;6.73;;;3.20;99.90;;;;;;4830551;29;20283;-69
2023/11/22 07:40:37;;;;;;;10.57;7.03;;;3.30;99.90;;;;;;4829854;29;20202;-70
2023/11/22 07:43:04;;;;;;;7.47;5.70;;;3.40;99.90;;;;;;4829794;29;20457;-68
2023/11/22 07:45:31;;;;;;;8.13;5.83;;;3.40;99.90;;;;;;4837379;29;21009;-66
2023/11/22 07:47:59;;;;;;;6.43;4.80;;;3.40;99.90;;;;;;4842161;29;20470;-67
2023/11/22 07:50:25;;;;;;;9.20;6.50;;;3.40;99.90;;;;;;4831482;29;20470;-70
2023/11/22 07:52:51;;;;;;;10.70;6.33;;;3.50;99.90;;;;;;4830881;29;20728;-70
2023/11/22 07:55:18;;;;;;;11.67;6.70;;;3.60;99.90;;;;;;4840105;29;20474;-68
2023/11/22 07:57:44;;;;;;;12.20;6.97;;;3.60;99.90;;;;;;4831227;29;20181;-68
2023/11/22 08:00:11;;;;;;;7.30;6.43;;;3.70;99.90;;;;;;4832076;29;20499;-68
2023/11/22 08:02:40;;;;;;;10.63;7.40;;;3.70;99.90;;;;;;4830980;29;20427;-71
2023/11/22 08:05:08;;;;;;;8.80;6.30;;;3.80;99.90;;;;;;4839969;29;20458;-68
2023/11/22 08:07:38;;;;;;;9.47;6.93;;;3.80;99.90;;;;;;4831667;29;20243;-69
2023/11/22 08:10:09;;;;;;;7.10;5.70;;;3.80;99.90;;;;;;4829425;29;20523;-67
2023/11/22 08:12:38;;;;;;;9.03;7.17;;;3.80;99.90;;;;;;4833086;29;20919;-68
2023/11/22 08:15:04;;;;;;;8.60;5.77;;;3.80;99.90;;;;;;4832273;29;20475;-68
2023/11/22 08:17:32;;;;;;;13.83;8.13;;;3.80;99.90;;;;;;4834895;29;20439;-65
2023/11/22 08:20:00;;;;;;;13.03;6.63;;;3.80;99.90;;;;;;4832217;29;20525;-67
2023/11/22 08:22:28;;;;;;;7.03;5.73;;;3.90;99.90;;;;;;4837483;29;20442;-66
2023/11/22 08:24:55;;;;;;;6.40;4.57;;;3.90;99.90;;;;;;4830598;29;20451;-67
2023/11/22 08:27:21;;;;;;;6.07;3.77;;;4.00;99.90;;;;;;4831345;29;20522;-69
2023/11/22 08:29:48;;;;;;;3.43;2.87;;;4.10;99.90;;;;;;4843773;29;20453;-68
2023/11/22 08:32:13;;;;;;;4.70;3.10;;;4.20;99.90;;;;;;4835872;29;20258;-68
2023/11/22 08:34:39;;;;;;;4.80;3.60;;;4.30;99.90;;;;;;4832549;29;20474;-69
2023/11/22 08:37:04;;;;;;;3.67;2.73;;;4.50;99.90;;;;;;4834557;29;20793;-70
2023/11/22 08:39:30;;;;;;;5.20;3.60;;;4.60;99.90;;;;;;4829216;29;20190;-68
2023/11/22 08:41:55;;;;;;;6.37;4.60;;;4.80;99.90;;;;;;4832069;29;20189;-68
2023/11/22 08:44:22;;;;;;;5.77;3.70;;;5.10;99.90;;;;;;4838605;29;20185;-68
2023/11/22 08:46:49;;;;;;;5.43;3.37;;;5.20;99.90;;;;;;4839980;29;20230;-70
2023/11/22 08:49:15;;;;;;;4.53;2.47;;;5.50;99.90;;;;;;4839420;29;20444;-69
2023/11/22 08:51:42;;;;;;;5.83;4.10;;;5.60;99.90;;;;;;4832865;29;20465;-67
2023/11/22 08:54:08;;;;;;;4.87;3.23;;;5.70;99.90;;;;;;4829377;29;20423;-67
2023/11/22 08:56:35;;;;;;;6.37;4.30;;;5.90;99.90;;;;;;4840316;29;20551;-68
2023/11/22 08:59:00;;;;;;;9.20;5.17;;;6.00;99.90;;;;;;4831130;29;20194;-68
2023/11/22 09:01:26;;;;;;;5.70;4.63;;;5.90;99.90;;;;;;4831510;29;20430;-71
2023/11/22 09:03:52;;;;;;;8.43;5.20;;;5.90;99.90;;;;;;4847919;29;20196;-67
2023/11/22 09:06:18;;;;;;;8.40;3.97;;;5.80;99.90;;;;;;4835126;29;20213;-68
2023/11/22 09:08:45;;;;;;;4.87;3.90;;;5.90;99.90;;;;;;4834089;29;20439;-68
2023/11/22 09:11:11;;;;;;;6.13;4.43;;;6.10;99.90;;;;;;4839899;29;20443;-69
2023/11/22 09:13:37;;;;;;;7.40;4.53;;;6.10;99.20;;;;;;4834232;29;20438;-67
2023/11/22 09:16:04;;;;;;;6.23;4.20;;;6.20;99.60;;;;;;4835630;29;20562;-67
2023/11/22 09:18:30;;;;;;;8.07;5.70;;;6.30;98.40;;;;;;4830973;29;20204;-67
2023/11/22 09:20:56;;;;;;;6.00;4.33;;;6.20;96.20;;;;;;4830858;29;20521;-69
2023/11/22 09:23:22;;;;;;;8.33;5.70;;;6.30;95.10;;;;;;4846329;29;20453;-68
2023/11/22 09:25:47;;;;;;;14.00;5.40;;;6.30;94.70;;;;;;4834680;29;20479;-68
2023/11/22 09:28:15;;;;;;;8.13;4.73;;;6.30;93.20;;;;;;4832825;29;20210;-67
2023/11/22 09:30:43;;;;;;;7.23;4.43;;;6.50;91.90;;;;;;4839165;29;20216;-68
2023/11/22 09:33:12;;;;;;;5.83;4.80;;;6.70;90.90;;;;;;4831808;29;20434;-65
2023/11/22 09:35:39;;;;;;;5.53;4.50;;;6.80;91.20;;;;;;4834443;29;20513;-67
2023/11/22 09:38:11;;;;;;;15.97;11.53;;;6.80;90.30;;;;;;4841834;29;20631;-69
2023/11/22 09:40:40;;;;;;;7.70;5.60;;;7.00;90.50;;;;;;4835270;29;20445;-70
2023/11/22 09:43:06;;;;;;;8.13;6.60;;;7.20;90.20;;;;;;4834559;29;20474;-70
2023/11/22 09:45:32;;;;;;;8.20;5.93;;;7.10;88.60;;;;;;4832007;29;20463;-69
2023/11/22 09:47:57;;;;;;;7.60;5.40;;;7.10;85.40;;;;;;4831940;29;20205;-67
2023/11/22 09:50:38;;;;;;;6.63;4.40;;;6.90;82.80;;;;;;4845959;29;20205;-67
2023/11/22 09:53:27;;;;;;;6.80;4.27;;;6.80;80.00;;;;;;4839043;29;20201;-69
2023/11/22 09:55:53;;;;;;;4.23;3.83;;;6.70;78.00;;;;;;4834465;29;20776;-67
2023/11/22 09:58:20;;;;;;;5.90;4.13;;;6.70;78.60;;;;;;4835410;29;20462;-70
2023/11/22 10:00:47;;;;;;;6.03;4.20;;;6.70;78.60;;;;;;4841508;29;20224;-66
2023/11/22 10:03:14;;;;;;;5.67;3.40;;;6.70;75.40;;;;;;4841550;29;20498;-68
2023/11/22 10:05:42;;;;;;;5.17;3.83;;;6.80;72.40;;;;;;4849687;29;20892;-68
2023/11/22 10:08:09;;;;;;;8.20;4.13;;;6.90;71.70;;;;;;4838318;29;20442;-69
2023/11/22 10:10:37;;;;;;;4.13;3.30;;;7.00;72.60;;;;;;4841387;29;20434;-70
2023/11/22 10:13:03;;;;;;;5.57;3.53;;;7.00;71.40;;;;;;4841980;29;20915;-68
2023/11/22 10:15:29;;;;;;;5.57;4.03;;;7.10;70.90;;;;;;4845521;29;20490;-69
2023/11/22 10:17:56;;;;;;;6.57;4.27;;;7.20;70.90;;;;;;4845857;29;20486;-67
2023/11/22 10:20:35;;;;;;;5.03;3.63;;;7.30;70.90;;;;;;4830797;29;20447;-70
2023/11/22 10:23:00;;;;;;;4.10;2.70;;;7.40;70.80;;;;;;4833713;29;20427;-69
2023/11/22 10:25:26;;;;;;;4.10;2.93;;;7.50;66.30;;;;;;4833987;29;20454;-66
2023/11/22 10:27:52;;;;;;;4.20;2.60;;;7.50;64.20;;;;;;4840724;29;20201;-68
2023/11/22 10:30:18;;;;;;;5.50;2.60;;;7.60;64.60;;;;;;4836085;29;20280;-69
2023/11/22 10:32:45;;;;;;;3.50;2.47;;;7.70;63.00;;;;;;4835353;29;20198;-68
2023/11/22 10:35:14;;;;;;;2.70;2.30;;;7.80;61.30;;;;;;4838568;29;20510;-70
2023/11/22 10:37:41;;;;;;;3.30;2.73;;;7.80;59.30;;;;;;4833096;29;20435;-70
2023/11/22 10:40:10;;;;;;;4.10;2.70;;;7.80;59.90;;;;;;4837627;29;20880;-71
2023/11/22 10:42:38;;;;;;;6.57;3.07;;;7.90;57.90;;;;;;4839390;29;20430;-69
2023/11/22 10:45:07;;;;;;;2.23;1.70;;;7.90;57.00;;;;;;4831781;29;20502;-70
2023/11/22 10:47:37;;;;;;;9.43;1.90;;;7.80;56.90;;;;;;4840553;29;20447;-70
2023/11/22 10:50:04;;;;;;;2.57;1.60;;;7.80;54.70;;;;;;4834050;29;20949;-69
2023/11/22 10:52:31;;;;;;;3.13;2.07;;;7.80;54.00;;;;;;4829621;29;20514;-67
2023/11/22 10:55:03;;;;;;;2.40;1.90;;;7.70;54.50;;;;;;4847815;29;20549;-69
2023/11/22 10:57:33;;;;;;;3.03;2.20;;;7.60;53.50;;;;;;4831281;29;20430;-66
2023/11/22 11:00:05;;;;;;;2.80;1.90;;;7.60;53.60;;;;;;4835227;29;20439;-68
2023/11/22 11:02:35;;;;;;;3.63;2.27;;;7.60;53.50;;;;;;4832609;29;20876;-69
2023/11/22 11:05:15;;;;;;;4.20;2.80;;;7.60;54.30;;;;;;4841767;29;20546;-70
2023/11/22 11:07:44;;;;;;;6.30;4.10;;;7.70;55.40;;;;;;4841350;29;20712;-69
2023/11/22 11:10:11;;;;;;;7.50;5.23;;;7.60;56.00;;;;;;4833658;29;20568;-70
2023/11/22 11:12:37;;;;;;;5.43;3.90;;;7.50;56.60;;;;;;4851328;29;20434;-69
2023/11/22 11:15:04;;;;;;;5.00;3.30;;;7.60;57.70;;;;;;4841319;29;20515;-68
2023/11/22 11:17:31;;;;;;;8.47;3.90;;;7.60;58.20;;;;;;4834839;29;20459;-67
2023/11/22 11:19:58;;;;;;;7.50;4.97;;;7.70;58.70;;;;;;4834586;29;20499;-68
2023/11/22 11:22:24;;;;;;;4.90;3.63;;;7.80;58.10;;;;;;4832603;29;20442;-67
2023/11/22 11:25:01;;;;;;;6.40;4.33;;;7.70;57.20;;;;;;4842038;29;20446;-68
2023/11/22 11:27:26;;;;;;;6.83;3.93;;;7.70;56.70;;;;;;4831707;29;20699;-71
2023/11/22 11:29:52;;;;;;;6.67;3.67;;;7.60;56.90;;;;;;4832480;29;20460;-69
2023/11/22 11:32:32;;;;;;;6.30;3.93;;;7.60;57.40;;;;;;4846075;29;20690;-68
2023/11/22 11:35:00;;;;;;;7.60;4.50;;;7.60;57.30;;;;;;4829651;29;20233;-70
2023/11/22 11:37:28;;;;;;;4.80;3.10;;;7.50;57.60;;;;;;4831405;29;20518;-69
2023/11/22 11:39:54;;;;;;;4.33;3.20;;;7.50;57.50;;;;;;4841834;29;20431;-71
2023/11/22 11:42:20;;;;;;;5.10;3.17;;;7.50;57.30;;;;;;4832194;29;20958;-69
2023/11/22 11:45:03;;;;;;;3.77;2.67;;;7.60;57.30;;;;;;4845834;29;20228;-70
2023/11/22 11:47:29;;;;;;;6.27;3.57;;;7.60;57.40;;;;;;4842673;29;20351;-68
2023/11/22 11:49:57;;;;;;;6.57;3.27;;;7.60;56.50;;;;;;4830064;29;20431;-69
2023/11/22 11:52:26;;;;;;;9.80;3.50;;;7.60;55.70;;;;;;4839257;29;20220;-71
2023/11/22 11:54:51;;;;;;;9.27;5.10;;;7.60;55.50;;;;;;4832281;29;20846;-66
2023/11/22 11:57:17;;;;;;;3.37;2.60;;;7.70;55.50;;;;;;4830991;29;20478;-70
2023/11/22 11:59:46;;;;;;;3.30;2.60;;;7.70;54.80;;;;;;4836953;29;20498;-68
2023/11/22 12:02:11;;;;;;;4.13;2.70;;;7.70;55.40;;;;;;4838105;29;20431;-70
2023/11/22 12:04:37;;;;;;;2.87;2.53;;;7.80;54.30;;;;;;4840111;29;20416;-70
2023/11/22 12:07:03;;;;;;;9.13;3.23;;;7.80;54.80;;;;;;4847251;29;20205;-70
2023/11/22 12:09:29;;;;;;;5.37;2.83;;;7.80;53.60;;;;;;4832204;29;20190;-72
2023/11/22 12:11:55;;;;;;;4.53;3.20;;;7.80;54.20;;;;;;4837603;29;20190;-71
2023/11/22 12:14:22;;;;;;;4.70;3.30;;;7.90;53.10;;;;;;4832920;29;20427;-71
2023/11/22 12:16:51;;;;;;;4.60;3.50;;;7.90;53.50;;;;;;4835743;29;20466;-70
2023/11/22 12:19:24;;;;;;;5.17;3.60;;;8.00;53.80;;;;;;4834217;29;20438;-70
2023/11/22 12:21:50;;;;;;;5.60;2.80;;;8.00;53.70;;;;;;4840229;29;20427;-70
2023/11/22 12:24:16;;;;;;;4.53;2.60;;;8.00;54.10;;;;;;4834143;29;20446;-68
2023/11/22 12:26:49;;;;;;;3.63;2.30;;;7.90;53.70;;;;;;4829936;29;20451;-70
2023/11/22 12:29:18;;;;;;;4.40;3.00;;;7.70;54.00;;;;;;4838859;29;20442;-71
2023/11/22 12:31:52;;;;;;;6.90;4.83;;;7.50;54.20;;;;;;4838961;29;20434;-70
2023/11/22 12:34:18;;;;;;;5.27;3.00;;;7.30;55.10;;;;;;4830655;29;20533;-69
2023/11/22 12:36:49;;;;;;;5.53;4.23;;;7.20;55.10;;;;;;4829243;29;20485;-69
2023/11/22 12:39:18;;;;;;;4.03;3.10;;;7.00;55.30;;;;;;4839827;29;20826;-70
2023/11/22 12:41:48;;;;;;;4.23;2.40;;;6.80;55.60;;;;;;4838488;29;20441;-70
2023/11/22 12:44:13;;;;;;;2.97;2.20;;;6.80;55.90;;;;;;4839882;29;20435;-69